Time;durP1;ratioP1;P1;durP2;ratioP2;P2;SDS_P1;SDS_P2;PMS_P1;PMS_P2;Temp;Humidity;BMP_temperature;BMP_pressure;BME280_temperature;BME280_humidity;BME280_pressure;Samples;Min_cycle;Max_cycle;Signal;HPM_P1;HPM_P2
2020/12/07 00:01:28;;;;;;;16.77;11.28;;;;;;;0.09;81.77;96837.13;1757023;81;21138;-80
2020/12/07 00:03:56;;;;;;;16.30;9.93;;;;;;;0.15;81.63;96848.46;1756983;81;21130;-81
2020/12/07 00:06:25;;;;;;;19.17;11.28;;;;;;;0.22;81.38;96841.21;1756866;81;21169;-80
2020/12/07 00:08:53;;;;;;;15.75;9.98;;;;;;;0.21;81.27;96842.12;1756948;81;21069;-80
2020/12/07 00:11:22;;;;;;;19.10;11.50;;;;;;;0.20;81.24;96847.77;1756627;81;21140;-80
2020/12/07 00:13:51;;;;;;;16.93;11.55;;;;;;;0.20;81.24;96840.47;1756821;81;21066;-79
2020/12/07 00:16:19;;;;;;;19.45;11.63;;;;;;;0.19;81.22;96822.80;1756613;81;21174;-79
2020/12/07 00:18:48;;;;;;;17.35;11.00;;;;;;;0.17;81.13;96815.55;1756835;81;21130;-79
2020/12/07 00:21:16;;;;;;;16.30;11.03;;;;;;;0.20;81.31;96835.28;1757377;81;21091;-79
2020/12/07 00:23:45;;;;;;;15.70;10.23;;;;;;;0.22;81.07;96841.21;1757808;81;21369;-79
2020/12/07 00:26:13;;;;;;;17.87;12.25;;;;;;;0.19;81.11;96834.91;1756753;81;21070;-79
2020/12/07 00:28:42;;;;;;;17.90;11.55;;;;;;;0.19;81.25;96839.63;1759351;80;21083;-80
2020/12/07 00:31:10;;;;;;;17.25;11.05;;;;;;;0.22;81.29;96838.16;1758087;80;21083;-79
2020/12/07 00:33:39;;;;;;;16.82;11.43;;;;;;;0.28;81.03;96832.29;1757287;81;21063;-78
2020/12/07 00:36:08;;;;;;;19.20;11.85;;;;;;;0.26;80.82;96831.91;1756947;81;21191;-78
2020/12/07 00:38:37;;;;;;;17.15;11.10;;;;;;;0.25;80.87;96829.41;1756761;81;21133;-78
2020/12/07 00:41:06;;;;;;;16.85;10.70;;;;;;;0.22;80.84;96837.33;1756900;81;21142;-79
2020/12/07 00:43:35;;;;;;;18.42;12.40;;;;;;;0.20;80.96;96832.23;1756664;81;21184;-78
2020/12/07 00:46:04;;;;;;;16.12;11.00;;;;;;;0.21;80.82;96839.54;1756700;81;21153;-78
2020/12/07 00:48:32;;;;;;;17.50;10.82;;;;;;;0.15;80.94;96831.63;1757048;81;21196;-78
2020/12/07 00:51:02;;;;;;;17.95;11.63;;;;;;;0.12;81.04;96835.69;1757044;81;21103;-78
2020/12/07 00:53:31;;;;;;;15.78;9.70;;;;;;;0.08;81.21;96825.10;1757070;81;21503;-79
2020/12/07 00:56:00;;;;;;;14.93;9.45;;;;;;;0.11;81.26;96825.39;1756882;81;21631;-79
2020/12/07 00:58:30;;;;;;;18.27;11.75;;;;;;;0.10;81.10;96819.38;1757074;81;21182;-79
2020/12/07 01:01:00;;;;;;;16.55;11.05;;;;;;;0.06;81.12;96828.23;1757497;81;22265;-80
2020/12/07 01:03:28;;;;;;;18.65;11.45;;;;;;;-0.01;81.20;96826.39;1756604;81;21232;-79
2020/12/07 01:05:59;;;;;;;16.75;10.70;;;;;;;-0.06;81.41;96826.25;1756977;81;21118;-79
2020/12/07 01:08:27;;;;;;;16.77;10.43;;;;;;;-0.08;81.59;96826.80;1729343;81;21599;-79
2020/12/07 01:10:58;;;;;;;17.90;11.80;;;;;;;-0.06;81.73;96830.13;1756881;81;21178;-79
2020/12/07 01:13:27;;;;;;;17.42;11.60;;;;;;;-0.04;81.60;96830.45;1757059;81;21955;-79
2020/12/07 01:15:57;;;;;;;15.80;10.45;;;;;;;-0.03;81.53;96824.81;1757116;81;21118;-79
2020/12/07 01:18:27;;;;;;;19.70;11.38;;;;;;;-0.04;81.41;96818.80;1756827;81;21149;-80
2020/12/07 01:20:56;;;;;;;14.23;9.35;;;;;;;-0.06;81.54;96799.06;1757094;81;21126;-80
2020/12/07 01:23:25;;;;;;;17.02;10.23;;;;;;;-0.10;81.46;96821.70;1756864;81;21646;-79
2020/12/07 01:25:54;;;;;;;18.17;11.20;;;;;;;-0.12;81.63;96817.07;1756963;81;21209;-79
2020/12/07 01:28:23;;;;;;;14.35;9.53;;;;;;;-0.12;81.73;96820.95;1756845;81;21089;-79
2020/12/07 01:30:52;;;;;;;19.37;12.05;;;;;;;-0.08;81.70;96822.91;1756713;81;21066;-79
2020/12/07 01:33:21;;;;;;;16.93;11.20;;;;;;;-0.07;81.62;96822.83;1756726;81;21205;-80
2020/12/07 01:35:50;;;;;;;18.37;11.50;;;;;;;-0.07;81.54;96812.93;1756856;81;21499;-79
2020/12/07 01:38:19;;;;;;;18.82;11.97;;;;;;;-0.09;81.53;96814.77;1756754;81;21370;-79
2020/12/07 01:40:48;;;;;;;15.95;10.00;;;;;;;-0.12;81.61;96811.89;1756787;81;21213;-79
2020/12/07 01:43:18;;;;;;;15.28;9.23;;;;;;;-0.13;81.72;96805.48;1756889;81;21137;-79
2020/12/07 01:45:47;;;;;;;14.85;10.03;;;;;;;-0.12;81.72;96802.84;1756788;81;21118;-79
2020/12/07 01:48:17;;;;;;;16.25;10.20;;;;;;;-0.16;81.65;96812.12;1756705;81;21126;-78
2020/12/07 01:50:45;;;;;;;14.80;9.33;;;;;;;-0.16;81.79;96809.53;1756542;81;21463;-79
2020/12/07 01:53:14;;;;;;;16.77;9.95;;;;;;;-0.17;81.88;96810.45;1756716;81;21083;-79
2020/12/07 01:55:44;;;;;;;14.90;9.75;;;;;;;-0.17;81.87;96806.58;1757596;81;21083;-80
2020/12/07 01:58:13;;;;;;;15.48;9.55;;;;;;;-0.15;81.95;96804.73;1756905;81;21126;-80
2020/12/07 02:00:42;;;;;;;15.90;10.18;;;;;;;-0.13;81.75;96803.73;1756745;81;21496;-79
2020/12/07 02:03:12;;;;;;;16.40;10.60;;;;;;;-0.14;81.74;96800.77;1756568;81;21313;-79
2020/12/07 02:05:42;;;;;;;18.30;11.38;;;;;;;-0.15;81.67;96800.85;1756555;81;21154;-80
2020/12/07 02:08:17;;;;;;;18.07;10.82;;;;;;;-0.16;81.92;96802.61;1758523;81;21153;-79
2020/12/07 02:10:59;;;;;;;16.62;10.78;;;;;;;-0.11;81.74;96803.67;1756946;81;21078;-79
2020/12/07 02:13:30;;;;;;;18.65;11.78;;;;;;;-0.11;81.66;96810.14;1731257;81;21060;-80
2020/12/07 02:15:59;;;;;;;22.32;11.88;;;;;;;-0.10;81.54;96799.70;1760035;80;21371;-80
2020/12/07 02:18:29;;;;;;;18.10;10.98;;;;;;;-0.09;81.50;96805.25;1756761;80;21126;-78
2020/12/07 02:21:00;;;;;;;16.73;11.28;;;;;;;-0.09;81.50;96813.02;1758584;81;21133;-78
2020/12/07 02:23:36;;;;;;;21.02;12.15;;;;;;;-0.04;81.50;96803.27;1754486;81;21225;-79
2020/12/07 02:26:07;;;;;;;17.30;10.80;;;;;;;-0.02;81.11;96807.90;1756106;81;21133;-79
2020/12/07 02:28:35;;;;;;;17.52;10.58;;;;;;;-0.03;80.84;96802.34;1757080;81;21373;-79
2020/12/07 02:31:05;;;;;;;17.17;10.80;;;;;;;-0.06;80.97;96800.36;1756865;81;21658;-80
2020/12/07 02:33:36;;;;;;;16.80;10.00;;;;;;;-0.06;80.75;96790.88;1757345;81;21130;-79
2020/12/07 02:36:09;;;;;;;17.00;11.45;;;;;;;-0.14;80.71;96808.98;1757031;81;21134;-79
2020/12/07 02:38:40;;;;;;;17.67;11.43;;;;;;;-0.22;80.93;96813.73;1757194;81;21062;-80
2020/12/07 02:41:08;;;;;;;15.70;10.18;;;;;;;-0.30;81.13;96814.09;1757294;81;22210;-78
2020/12/07 02:43:38;;;;;;;15.85;11.12;;;;;;;-0.33;81.31;96802.62;1757038;81;21134;-78
2020/12/07 02:46:07;;;;;;;20.37;11.93;;;;;;;-0.32;81.31;96805.13;1729956;81;21606;-80
2020/12/07 02:48:36;;;;;;;16.82;10.40;;;;;;;-0.26;81.26;96814.33;1756823;81;21114;-80
2020/12/07 02:51:07;;;;;;;19.70;10.90;;;;;;;-0.29;81.10;96804.98;1756475;81;21153;-79
2020/12/07 02:53:36;;;;;;;17.57;10.78;;;;;;;-0.33;80.97;96798.73;1729979;81;21364;-81
2020/12/07 02:56:06;;;;;;;17.48;10.65;;;;;;;-0.42;81.23;96797.43;1757011;81;21134;-80
2020/12/07 02:58:36;;;;;;;18.73;10.75;;;;;;;-0.45;81.46;96792.89;1755668;81;21193;-79
2020/12/07 03:01:06;;;;;;;17.92;10.32;;;;;;;-0.46;81.62;96800.27;1757239;81;21106;-79
2020/12/07 03:03:35;;;;;;;19.20;12.30;;;;;;;-0.44;81.59;96799.73;1757004;80;21169;-80
2020/12/07 03:06:03;;;;;;;19.27;11.03;;;;;;;-0.41;81.56;96801.72;1758026;81;21259;-79
2020/12/07 03:08:32;;;;;;;19.25;10.98;;;;;;;-0.38;81.40;96808.48;1758551;81;21070;-80
2020/12/07 03:11:05;;;;;;;19.90;11.78;;;;;;;-0.40;81.08;96799.97;1731666;81;21097;-79
2020/12/07 03:13:36;;;;;;;21.02;11.80;;;;;;;-0.43;81.20;96814.33;1757296;81;21662;-80
2020/12/07 03:16:04;;;;;;;21.77;11.93;;;;;;;-0.43;81.34;96802.69;1757389;81;21588;-79
2020/12/07 03:18:35;;;;;;;17.00;10.08;;;;;;;-0.40;81.18;96803.84;1757808;81;21367;-79
2020/12/07 03:21:05;;;;;;;18.35;10.35;;;;;;;-0.39;81.20;96807.64;1757258;81;21229;-79
2020/12/07 03:23:34;;;;;;;19.90;11.10;;;;;;;-0.33;81.12;96805.20;1760154;81;21067;-79
2020/12/07 03:26:04;;;;;;;24.05;12.95;;;;;;;-0.30;80.73;96802.02;1759242;81;21205;-80
2020/12/07 03:28:33;;;;;;;20.82;11.97;;;;;;;-0.29;80.36;96793.80;1760649;81;21170;-79
2020/12/07 03:31:06;;;;;;;19.60;11.65;;;;;;;-0.31;80.39;96793.85;1760696;81;21358;-80
2020/12/07 03:33:35;;;;;;;19.95;11.48;;;;;;;-0.29;80.32;96796.39;1760785;81;21193;-79
2020/12/07 03:36:04;;;;;;;21.20;11.78;;;;;;;-0.28;80.05;96792.87;1733698;81;21074;-80
2020/12/07 03:38:34;;;;;;;20.80;11.70;;;;;;;-0.32;79.90;96792.64;1760682;81;21027;-78
2020/12/07 03:41:03;;;;;;;20.30;11.63;;;;;;;-0.40;79.93;96785.28;1758479;81;21067;-80
2020/12/07 03:43:34;;;;;;;20.75;11.73;;;;;;;-0.46;80.10;96784.30;1757163;81;21373;-80
2020/12/07 03:46:02;;;;;;;19.40;11.48;;;;;;;-0.49;80.23;96790.06;1759097;81;21079;-79
2020/12/07 03:48:33;;;;;;;20.52;11.63;;;;;;;-0.54;80.28;96795.45;1757392;81;21082;-78
2020/12/07 03:51:03;;;;;;;21.23;12.68;;;;;;;-0.59;80.38;96788.41;1757463;81;21090;-79
2020/12/07 03:53:34;;;;;;;20.65;11.43;;;;;;;-0.58;80.67;96799.97;1757438;81;21189;-78
2020/12/07 03:56:06;;;;;;;17.77;11.10;;;;;;;-0.52;80.70;96801.88;1757005;81;21149;-80
2020/12/07 03:58:35;;;;;;;18.60;10.88;;;;;;;-0.46;80.47;96804.16;1756935;81;21634;-80
2020/12/07 04:01:05;;;;;;;17.90;11.03;;;;;;;-0.45;80.23;96799.35;1730250;81;21094;-81
2020/12/07 04:03:34;;;;;;;21.37;11.63;;;;;;;-0.47;80.23;96802.48;1758802;80;21074;-80
2020/12/07 04:08:40;;;;;;;22.82;11.68;;;;;;;-0.45;80.17;96790.30;1752850;81;21407;-79
2020/12/07 04:11:08;;;;;;;19.60;9.93;;;;;;;-0.48;80.05;96789.14;1751798;82;21162;-79
2020/12/07 04:13:37;;;;;;;20.55;11.35;;;;;;;-0.48;80.17;96796.45;1751376;82;21115;-80
2020/12/07 04:16:06;;;;;;;19.35;11.48;;;;;;;-0.47;80.02;96797.31;1751668;82;21149;-78
2020/12/07 04:18:34;;;;;;;19.40;11.63;;;;;;;-0.51;79.99;96788.86;1752132;82;21038;-80
2020/12/07 04:21:03;;;;;;;19.42;10.93;;;;;;;-0.61;80.15;96788.47;1753103;82;21208;-80
2020/12/07 04:23:31;;;;;;;20.60;12.00;;;;;;;-0.64;80.38;96778.29;1751471;82;21503;-79
2020/12/07 04:26:01;;;;;;;19.52;10.88;;;;;;;-0.62;80.46;96789.38;1751873;82;21075;-78
2020/12/07 04:28:30;;;;;;;19.90;11.00;;;;;;;-0.58;80.44;96787.03;1751513;82;21154;-79
2020/12/07 04:30:59;;;;;;;23.70;12.05;;;;;;;-0.59;80.21;96783.23;1751601;82;21524;-79
2020/12/07 04:33:28;;;;;;;21.60;12.03;;;;;;;-0.63;80.31;96777.37;1751285;82;21303;-78
2020/12/07 04:35:57;;;;;;;20.43;11.63;;;;;;;-0.66;80.26;96779.25;1751248;82;21693;-79
2020/12/07 04:38:25;;;;;;;19.10;11.83;;;;;;;-0.67;80.53;96773.70;1751441;82;21634;-79
2020/12/07 04:40:55;;;;;;;20.12;10.28;;;;;;;-0.66;80.52;96765.03;1751393;82;21165;-80
2020/12/07 04:43:23;;;;;;;20.62;11.20;;;;;;;-0.62;80.53;96776.45;1722467;82;21063;-79
2020/12/07 04:45:52;;;;;;;17.95;10.35;;;;;;;-0.56;80.16;96774.02;1751406;82;21148;-79
2020/12/07 04:48:22;;;;;;;19.20;11.20;;;;;;;-0.59;80.04;96772.89;1751549;82;21504;-79
2020/12/07 04:50:50;;;;;;;18.32;10.58;;;;;;;-0.61;80.18;96774.23;1751429;82;21508;-79
2020/12/07 04:53:19;;;;;;;22.37;11.20;;;;;;;-0.57;80.20;96768.02;1751429;82;21519;-79
2020/12/07 04:55:49;;;;;;;18.10;10.90;;;;;;;-0.57;79.82;96770.59;1751402;82;21157;-79
2020/12/07 04:58:19;;;;;;;20.68;11.10;;;;;;;-0.59;79.88;96768.55;1751497;82;22095;-79
2020/12/07 05:00:47;;;;;;;20.15;11.30;;;;;;;-0.60;79.94;96769.91;1751441;81;21127;-81
2020/12/07 05:03:15;;;;;;;19.10;10.88;;;;;;;-0.59;79.58;96736.69;1751427;82;21209;-80
2020/12/07 05:05:44;;;;;;;17.98;10.15;;;;;;;-0.63;79.65;96763.61;1755704;81;21162;-80
2020/12/07 05:08:13;;;;;;;19.15;11.40;;;;;;;-0.60;79.80;96769.44;1756897;81;21071;-79
2020/12/07 05:10:42;;;;;;;20.00;11.85;;;;;;;-0.55;79.44;96766.63;1729517;81;21341;-81
2020/12/07 05:13:20;;;;;;;19.77;11.85;;;;;;;-0.57;79.27;96762.00;1756830;81;21146;-79
2020/12/07 05:15:42;;;;;;;17.67;11.43;;;;;;;-0.58;79.30;96762.92;1755672;81;21224;-80
2020/12/07 05:18:11;;;;;;;19.10;10.43;;;;;;;-0.58;79.38;96762.47;1756851;81;21051;-79
2020/12/07 05:20:39;;;;;;;18.87;11.50;;;;;;;-0.56;79.13;96763.22;1756805;81;21212;-81
2020/12/07 05:23:08;;;;;;;26.93;13.95;;;;;;;-0.53;78.93;96746.72;1756881;81;21802;-81
2020/12/07 05:25:37;;;;;;;19.17;11.15;;;;;;;-0.53;79.00;96738.96;1756926;81;21185;-80
2020/12/07 05:28:05;;;;;;;21.85;12.47;;;;;;;-0.53;78.67;96741.55;1757041;81;21213;-80
2020/12/07 05:30:40;;;;;;;24.25;12.60;;;;;;;-0.55;78.53;96758.88;1756679;81;21091;-80
2020/12/07 05:33:05;;;;;;;27.22;15.43;;;;;;;-0.55;78.60;96740.31;1706675;81;21205;-81
2020/12/07 05:35:40;;;;;;;31.80;16.55;;;;;;;-0.54;78.45;96751.03;1757148;81;21140;-80
2020/12/07 05:38:09;;;;;;;101.25;58.75;;;;;;;-0.54;78.79;96751.48;1756963;81;21551;-80
2020/12/07 05:40:37;;;;;;;26.23;14.20;;;;;;;-0.51;78.98;96754.39;1757048;81;21121;-80
2020/12/07 05:43:06;;;;;;;27.98;14.63;;;;;;;-0.52;78.61;96735.45;1757050;81;21590;-80
2020/12/07 05:45:34;;;;;;;65.83;31.23;;;;;;;-0.61;78.52;96734.16;1757337;81;21095;-81
2020/12/07 05:48:04;;;;;;;29.07;15.40;;;;;;;-0.71;78.74;96739.86;1757507;81;21371;-81
2020/12/07 05:50:34;;;;;;;26.60;14.60;;;;;;;-0.80;78.97;96737.28;1757388;81;21079;-79
2020/12/07 05:53:02;;;;;;;44.08;21.05;;;;;;;-0.88;79.06;96742.84;1759794;80;21019;-81
2020/12/07 05:55:32;;;;;;;41.02;19.20;;;;;;;-0.94;79.62;96750.90;1759767;80;21509;-81
2020/12/07 05:58:09;;;;;;;27.05;14.60;;;;;;;-0.94;79.62;96760.41;1757350;81;21054;-80
2020/12/07 06:00:38;;;;;;;56.28;24.37;;;;;;;-0.94;79.73;96744.89;1757060;81;21257;-80
2020/12/07 06:03:06;;;;;;;35.55;16.80;;;;;;;-0.93;79.44;96728.47;1757261;81;21528;-82
2020/12/07 06:05:36;;;;;;;27.13;15.60;;;;;;;-0.99;79.48;96745.57;1753682;81;21181;-81
2020/12/07 06:08:18;;;;;;;21.30;12.65;;;;;;;-1.04;79.71;96739.78;1722976;82;21523;-82
2020/12/07 06:11:05;;;;;;;27.50;15.55;;;;;;;-1.08;79.88;96740.38;1751192;81;21149;-82
2020/12/07 06:13:34;;;;;;;31.15;17.32;;;;;;;-1.08;79.87;96747.67;1746795;82;21380;-81
2020/12/07 06:16:05;;;;;;;37.98;18.52;;;;;;;-1.09;79.84;96760.67;1751420;82;21094;-83
2020/12/07 06:18:42;;;;;;;33.30;18.55;;;;;;;-1.09;79.91;96762.80;1751719;81;21120;-82
2020/12/07 06:21:18;;;;;;;42.08;20.00;;;;;;;-1.14;79.81;96751.01;1751530;82;21075;-82
2020/12/07 06:23:48;;;;;;;27.22;14.78;;;;;;;-1.15;80.01;96751.92;1737070;80;21150;-82
2020/12/07 06:26:18;;;;;;;28.67;15.15;;;;;;;-1.17;79.83;96761.05;1735784;82;21201;-81
2020/12/07 06:28:48;;;;;;;32.17;15.83;;;;;;;-1.18;80.06;96760.67;1751168;82;21221;-83
2020/12/07 06:31:20;;;;;;;38.55;20.77;;;;;;;-1.18;79.82;96751.63;1751447;82;21130;-82
2020/12/07 06:33:52;;;;;;;36.03;18.55;;;;;;;-1.16;79.99;96756.26;1752262;82;21126;-82
2020/12/07 06:36:34;;;;;;;36.05;19.40;;;;;;;-1.12;79.38;96760.38;1751950;82;21186;-82
2020/12/07 06:39:06;;;;;;;39.95;22.55;;;;;;;-1.19;79.44;96762.84;1751954;81;21446;-81
2020/12/07 06:41:41;;;;;;;33.53;17.80;;;;;;;-1.21;79.67;96761.26;1752033;82;21185;-83
2020/12/07 06:44:13;;;;;;;28.42;16.00;;;;;;;-1.17;79.64;96761.50;1763911;80;21155;-81
2020/12/07 06:46:54;;;;;;;34.25;19.48;;;;;;;-1.14;79.31;96758.30;1785802;80;21029;-81
2020/12/07 06:52:12;;;;;;;35.78;21.27;;;;;;;-1.22;79.43;96753.97;1851798;77;28138;-82
2020/12/07 06:57:49;;;;;;;29.23;17.27;;;;;;;-1.21;79.41;96765.14;1750739;82;21158;-80
2020/12/07 07:00:23;;;;;;;30.40;17.37;;;;;;;-1.19;79.31;96769.30;1818844;78;21188;-84
2020/12/07 07:02:58;;;;;;;26.42;15.85;;;;;;;-1.21;78.96;96753.05;1749823;81;21289;-82
2020/12/07 07:05:29;;;;;;;31.93;18.05;;;;;;;-1.22;79.12;96758.30;1819221;78;21147;-83
2020/12/07 07:08:03;;;;;;;26.05;15.63;;;;;;;-1.23;79.24;96757.47;1749471;82;21115;-81
2020/12/07 07:10:31;;;;;;;39.60;22.60;;;;;;;-1.19;78.93;96758.14;1819281;78;21180;-83
2020/12/07 07:13:00;;;;;;;31.37;17.90;;;;;;;-1.19;79.08;96762.84;1819794;78;21160;-83
2020/12/07 07:15:28;;;;;;;31.48;16.77;;;;;;;-1.17;79.12;96762.34;1820191;78;21054;-80
2020/12/07 07:17:57;;;;;;;24.92;13.95;;;;;;;-1.18;78.80;96749.50;1820165;78;21101;-83
2020/12/07 07:20:26;;;;;;;32.00;18.23;;;;;;;-1.22;78.85;96767.34;1750277;82;21130;-84
2020/12/07 07:22:56;;;;;;;33.05;18.75;;;;;;;-1.26;78.99;96757.59;1819837;78;21201;-83
2020/12/07 07:25:41;;;;;;;32.48;19.65;;;;;;;-1.22;78.82;96759.59;1750153;82;21188;-82
2020/12/07 07:28:09;;;;;;;31.82;18.27;;;;;;;-1.18;78.81;96761.97;1815660;78;21061;-83
2020/12/07 07:30:38;;;;;;;33.35;17.95;;;;;;;-1.11;78.71;96765.92;1750166;82;21506;-83
2020/12/07 07:33:06;;;;;;;30.70;16.90;;;;;;;-1.08;78.84;96767.51;1820014;78;21542;-84
2020/12/07 07:35:36;;;;;;;28.55;17.55;;;;;;;-1.08;78.56;96763.17;1750266;82;21550;-84
2020/12/07 07:38:05;;;;;;;31.05;16.70;;;;;;;-1.10;78.59;96758.55;1820328;78;21105;-82
2020/12/07 07:40:40;;;;;;;33.58;18.87;;;;;;;-1.19;78.12;96769.30;1822652;78;21172;-87
2020/12/07 07:43:11;;;;;;;26.97;15.50;;;;;;;-1.26;78.42;96765.80;1794214;78;21113;-89
2020/12/07 07:45:41;;;;;;;30.05;16.67;;;;;;;-1.28;78.36;96763.30;1819871;78;21063;-86
2020/12/07 07:54:46;;;;;;;30.62;16.60;;;;;;;-1.28;78.33;96771.05;1820913;78;21045;-88
2020/12/07 08:16:22;;;;;;;28.87;17.50;;;;;;;-1.25;78.39;96784.27;1819617;78;21305;-84
2020/12/07 08:18:57;;;;;;;;;;;;;;;-1.20;77.85;96783.59;1822826;78;21021;-90
2020/12/07 08:21:32;;;;;;;28.00;16.07;;;;;;;-1.21;77.54;96784.05;1819796;78;20231;-85
2020/12/07 08:24:09;;;;;;;26.25;14.85;;;;;;;-1.25;77.34;96785.55;1820411;78;21248;-89
2020/12/07 08:26:42;;;;;;;32.58;18.42;;;;;;;-1.33;77.45;96782.50;1821345;78;21128;-89
2020/12/07 08:29:12;;;;;;;26.80;14.65;;;;;;;-1.33;77.71;96780.76;1820773;78;21034;-89
2020/12/07 08:31:42;;;;;;;32.95;16.97;;;;;;;-1.23;77.53;96769.09;1820533;78;21045;-87
2020/12/07 08:34:14;;;;;;;28.27;16.52;;;;;;;-1.22;77.23;96770.77;1820696;78;21093;-87
2020/12/07 08:36:45;;;;;;;26.50;13.72;;;;;;;-1.24;77.05;96760.13;1820734;78;21351;-89
2020/12/07 08:39:14;;;;;;;26.57;15.88;;;;;;;-1.31;77.05;96767.30;1820686;78;21077;-85
2020/12/07 08:41:44;;;;;;;32.30;18.10;;;;;;;-1.37;77.24;96771.47;1820615;78;21046;-87
2020/12/07 08:44:13;;;;;;;25.57;15.05;;;;;;;-1.38;77.73;96773.67;1820819;78;21061;-88
2020/12/07 08:46:45;;;;;;;31.65;17.05;;;;;;;-1.38;77.27;96762.05;1820858;78;21057;-86
2020/12/07 08:49:14;;;;;;;27.25;15.60;;;;;;;-1.43;77.18;96762.72;1818101;78;21283;-87
2020/12/07 08:51:43;;;;;;;32.88;17.82;;;;;;;-1.46;77.55;96769.33;1809705;79;21173;-88
2020/12/07 08:54:14;;;;;;;25.55;15.53;;;;;;;-1.42;77.80;96769.58;1810940;79;21098;-86
2020/12/07 08:56:43;;;;;;;27.45;16.23;;;;;;;-1.33;77.51;96764.42;1810311;79;21551;-89
2020/12/07 08:59:12;;;;;;;25.12;14.28;;;;;;;-1.31;77.42;96767.30;1810143;79;21053;-89
2020/12/07 09:01:43;;;;;;;28.70;16.23;;;;;;;-1.27;77.15;96765.42;1783777;79;21282;-89
2020/12/07 09:04:11;;;;;;;28.87;16.97;;;;;;;-1.24;77.21;96767.88;1809457;79;21102;-89
2020/12/07 09:06:44;;;;;;;26.45;16.77;;;;;;;-1.18;77.63;96756.80;1809909;79;21074;-86
2020/12/07 09:09:13;;;;;;;27.05;16.57;;;;;;;-1.09;77.13;96746.00;1783374;79;21098;-86
2020/12/07 09:11:42;;;;;;;31.07;17.57;;;;;;;-1.05;76.60;96753.16;1809353;79;21413;-88
2020/12/07 09:14:11;;;;;;;29.50;16.65;;;;;;;-1.10;76.91;96762.88;1809494;79;21180;-86
2020/12/07 09:16:39;;;;;;;26.90;15.00;;;;;;;-1.13;76.47;96750.95;1810021;79;21121;-87
2020/12/07 09:19:09;;;;;;;28.40;17.17;;;;;;;-1.14;76.27;96757.01;1809698;79;21170;-89
2020/12/07 09:21:38;;;;;;;28.67;16.62;;;;;;;-1.12;76.42;96754.37;1810114;79;21546;-87
2020/12/07 09:24:10;;;;;;;26.87;15.48;;;;;;;-1.09;76.38;96741.29;1810279;79;21558;-85
2020/12/07 09:26:39;;;;;;;35.85;18.12;;;;;;;-1.10;76.44;96748.21;1808851;79;22206;-88
2020/12/07 09:29:09;;;;;;;28.23;14.73;;;;;;;-1.11;76.54;96749.13;1809311;79;21575;-84
2020/12/07 09:31:38;;;;;;;30.70;16.35;;;;;;;-1.11;75.99;96731.50;1812426;77;21070;-86
2020/12/07 09:34:08;;;;;;;27.40;15.60;;;;;;;-1.17;76.07;96744.25;1812222;77;21122;-88
2020/12/07 09:36:38;;;;;;;27.40;16.75;;;;;;;-1.18;76.38;96734.00;1810261;79;21157;-89
2020/12/07 09:39:07;;;;;;;27.87;16.05;;;;;;;-1.20;76.58;96744.39;1809648;79;21342;-89
2020/12/07 09:41:37;;;;;;;26.25;16.12;;;;;;;-1.13;76.44;96738.46;1810505;79;21274;-90
2020/12/07 09:44:05;;;;;;;28.87;17.35;;;;;;;-1.09;76.15;96735.66;1809888;79;21216;-88
2020/12/07 09:46:35;;;;;;;35.00;18.50;;;;;;;-1.09;76.33;96739.54;1809363;79;21074;-90
2020/12/07 09:49:04;;;;;;;32.00;17.67;;;;;;;-1.05;76.05;96738.12;1809590;79;21066;-87
2020/12/07 09:51:33;;;;;;;34.53;18.37;;;;;;;-1.06;76.00;96729.53;1814341;78;21464;-88
2020/12/07 09:54:02;;;;;;;36.20;17.62;;;;;;;-1.05;76.43;96723.45;1793480;79;21294;-89
2020/12/07 09:56:33;;;;;;;29.67;18.52;;;;;;;-0.98;75.73;96711.05;1784646;79;21121;-90
2020/12/07 09:59:02;;;;;;;35.75;19.40;;;;;;;-1.02;75.96;96712.94;1781052;80;21093;-89
2020/12/07 10:01:31;;;;;;;29.90;17.35;;;;;;;-1.01;76.01;96704.73;1785695;80;21565;-90
2020/12/07 10:04:00;;;;;;;29.12;18.12;;;;;;;-0.92;75.52;96713.34;1776279;80;21370;-90
2020/12/07 10:06:30;;;;;;;30.72;18.00;;;;;;;-0.88;75.27;96701.48;1791217;80;21133;-90
2020/12/07 10:08:59;;;;;;;33.18;19.90;;;;;;;-0.88;74.89;96713.12;1790900;80;21577;-91
2020/12/07 10:11:28;;;;;;;30.95;17.98;;;;;;;-0.85;74.80;96701.77;1781667;80;21262;-88
2020/12/07 10:13:57;;;;;;;37.67;18.57;;;;;;;-0.85;74.59;96682.39;1782354;80;21137;-89
2020/12/07 10:16:26;;;;;;;31.00;16.75;;;;;;;-0.94;74.87;96703.54;1782056;80;21870;-90
2020/12/07 10:18:56;;;;;;;29.42;17.90;;;;;;;-1.00;74.82;96696.92;1780411;80;21224;-88
2020/12/07 10:21:26;;;;;;;32.63;17.42;;;;;;;-1.04;75.26;96700.56;1755480;80;21222;-92
2020/12/07 10:23:56;;;;;;;32.75;19.62;;;;;;;-1.09;75.18;96703.36;1780480;80;21196;-87
2020/12/07 10:26:25;;;;;;;34.95;17.40;;;;;;;-1.12;75.11;96703.53;1780331;80;21039;-90
2020/12/07 10:28:54;;;;;;;32.50;20.23;;;;;;;-1.09;75.34;96696.07;1782109;80;21205;-90
2020/12/07 10:31:30;;;;;;;34.40;20.12;;;;;;;-1.04;75.50;96701.85;1782127;80;21137;-91
2020/12/07 10:34:00;;;;;;;32.75;18.45;;;;;;;-0.91;75.40;96689.16;1782032;80;21601;-88
2020/12/07 10:36:29;;;;;;;31.37;18.02;;;;;;;-0.91;74.80;96690.45;1781539;80;21125;-89
2020/12/07 10:38:58;;;;;;;33.28;17.40;;;;;;;-1.01;74.71;96699.56;1781830;80;21133;-90
2020/12/07 10:41:27;;;;;;;32.78;19.23;;;;;;;-1.03;75.10;96703.98;1782340;80;21185;-88
2020/12/07 10:43:58;;;;;;;34.50;17.02;;;;;;;-1.04;75.45;96690.22;1782435;80;21117;-88
2020/12/07 10:46:27;;;;;;;27.67;16.20;;;;;;;-1.03;75.21;96695.77;1781802;80;21141;-90
2020/12/07 10:48:56;;;;;;;31.90;17.05;;;;;;;-1.03;75.15;96699.64;1781839;80;21228;-89
2020/12/07 10:51:25;;;;;;;33.45;19.57;;;;;;;-1.05;74.95;96708.40;1783434;80;21113;-88
2020/12/07 10:53:55;;;;;;;39.20;22.02;;;;;;;-1.08;75.52;96693.41;1785103;79;21287;-86
2020/12/07 10:56:24;;;;;;;30.43;18.02;;;;;;;-1.05;75.74;96712.27;1784632;80;21149;-90
2020/12/07 10:58:52;;;;;;;32.20;18.55;;;;;;;-0.98;75.25;96702.84;1784646;79;21081;-89
2020/12/07 11:01:22;;;;;;;32.20;19.62;;;;;;;-0.95;75.10;96706.59;1784722;80;21523;-88
2020/12/07 11:03:52;;;;;;;32.63;19.52;;;;;;;-0.91;74.87;96699.49;1784431;80;21499;-89
2020/12/07 11:06:28;;;;;;;34.60;19.87;;;;;;;-0.91;74.74;96693.86;1787304;78;21556;-88
2020/12/07 11:11:32;;;;;;;36.13;21.90;;;;;;;-0.86;74.76;96681.55;1846064;76;28232;-89
2020/12/07 11:14:01;;;;;;;33.75;20.32;;;;;;;-0.89;74.83;96691.20;1786632;80;21203;-88
2020/12/07 11:16:31;;;;;;;36.10;20.62;;;;;;;-0.83;75.51;96691.75;1786515;80;22135;-88
2020/12/07 11:19:01;;;;;;;34.27;18.67;;;;;;;-0.74;74.77;96687.85;1786697;80;21072;-90
2020/12/07 11:21:30;;;;;;;42.25;22.02;;;;;;;-0.74;74.46;96687.02;1786938;80;21172;-89
2020/12/07 11:23:59;;;;;;;45.58;23.10;;;;;;;-0.78;74.12;96666.10;1789190;77;21081;-88
2020/12/07 11:26:33;;;;;;;43.90;23.42;;;;;;;-0.88;74.84;96697.61;1787949;80;21112;-88
2020/12/07 11:29:04;;;;;;;56.65;27.05;;;;;;;-0.90;75.01;96692.11;1786786;80;21296;-88
2020/12/07 11:31:32;;;;;;;36.93;19.12;;;;;;;-0.81;74.65;96692.96;1786178;80;21459;-88
2020/12/07 11:34:02;;;;;;;39.85;22.55;;;;;;;-0.76;74.16;96679.81;1786361;80;21153;-88
2020/12/07 11:36:33;;;;;;;31.95;18.02;;;;;;;-0.82;74.00;96695.17;1786596;80;21078;-91
2020/12/07 11:44:14;;;;;;;32.58;19.98;;;;;;;-1.21;75.25;96695.38;1786089;80;21054;-89
2020/12/07 11:46:51;;;;;;;53.85;26.77;;;;;;;-1.18;75.51;96697.37;1786442;80;21053;-87
2020/12/07 11:49:19;;;;;;;41.10;22.05;;;;;;;-1.13;75.45;96703.16;1786507;80;21120;-91
2020/12/07 11:51:47;;;;;;;50.38;26.65;;;;;;;-1.09;75.26;96693.48;1786722;80;21105;-90
2020/12/07 11:54:16;;;;;;;39.95;21.25;;;;;;;-1.07;75.71;96690.36;1786112;80;21390;-87
2020/12/07 11:56:45;;;;;;;39.88;21.60;;;;;;;-1.07;75.69;96696.82;1786761;80;21121;-89
2020/12/07 11:59:15;;;;;;;81.75;37.00;;;;;;;-1.02;75.75;96675.92;1786945;80;21406;-89
2020/12/07 12:01:44;;;;;;;40.23;24.05;;;;;;;-0.98;75.87;96686.05;1785551;80;21179;-87
2020/12/07 12:04:13;;;;;;;57.33;28.67;;;;;;;-0.88;75.25;96692.89;1785654;80;21080;-89
2020/12/07 12:06:42;;;;;;;37.40;21.17;;;;;;;-0.88;75.08;96683.84;1786682;80;21162;-89
2020/12/07 12:09:13;;;;;;;34.78;20.57;;;;;;;-0.95;75.03;96691.50;1786648;80;21502;-89
2020/12/07 12:14:23;;;;;;;47.88;25.62;;;;;;;-1.08;75.86;96687.40;1852711;77;28126;-87
2020/12/07 12:16:53;;;;;;;33.70;19.98;;;;;;;-1.13;75.78;96679.90;1821367;78;21046;-87